Time;durP1;ratioP1;P1;durP2;ratioP2;P2;SDS_P1;SDS_P2;PMS_P1;PMS_P2;Temp;Humidity;BMP_temperature;BMP_pressure;BME280_temperature;BME280_humidity;BME280_pressure;Samples;Min_cycle;Max_cycle;Signal;HPM_P1;HPM_P2
2022/12/22 03:26:21;;;;;;;68.72;27.95;;;;;;;-0.71;76.55;100088.00;3152362;28;20052;-66
2022/12/22 03:27:53;;;;;;;71.65;29.88;;;;;;;-1.23;76.41;100003.34;3157074;28;20044;-66
2022/12/22 03:29:27;;;;;;;68.47;29.33;;;;;;;-0.71;76.61;100085.44;3156785;28;20097;-66
2022/12/22 03:31:00;;;;;;;56.55;25.73;;;;;;;-0.75;76.40;100081.16;3157204;28;20048;-66
2022/12/22 03:32:32;;;;;;;63.95;26.60;;;;;;;-0.70;76.40;100089.72;3156692;28;20060;-66
2022/12/22 03:34:04;;;;;;;61.80;27.17;;;;;;;-0.73;76.64;100079.47;3156978;28;20052;-67
2022/12/22 03:35:36;;;;;;;64.93;27.05;;;;;;;-0.67;76.37;100075.22;3157056;28;20051;-66
2022/12/22 03:37:08;;;;;;;57.25;26.73;;;;;;;-0.71;76.52;100066.66;3144677;28;20444;-67
2022/12/22 03:38:40;;;;;;;61.20;27.38;;;;;;;-0.66;76.28;100070.09;3157227;28;20432;-67
2022/12/22 03:40:12;;;;;;;58.38;25.65;;;;;;;-0.66;76.37;100082.91;3153923;28;20129;-67
2022/12/22 03:47:12;;;;;;;63.70;27.08;;;;;;;-0.89;76.57;100054.66;3156743;28;21356;-67
2022/12/22 03:49:08;;;;;;;60.42;27.38;;;;;;;-0.91;76.75;100051.25;3156897;28;20126;-68
2022/12/22 03:50:39;;;;;;;58.83;26.80;;;;;;;-0.81;76.58;100076.00;3155128;28;20055;-67
2022/12/22 03:52:11;;;;;;;57.33;25.65;;;;;;;-0.88;76.65;100058.09;3140901;28;20417;-67
2022/12/22 03:53:42;;;;;;;57.47;26.23;;;;;;;-0.72;76.40;100077.75;3156871;28;20047;-68
2022/12/22 03:55:14;;;;;;;61.30;27.77;;;;;;;-0.72;76.38;100078.59;3151688;28;20129;-68
2022/12/22 03:56:46;;;;;;;61.80;25.20;;;;;;;-0.81;76.38;100060.66;3154541;28;20444;-68
2022/12/22 03:58:18;;;;;;;61.90;26.48;;;;;;;-0.81;76.36;100065.78;3156510;28;20051;-67
2022/12/22 03:59:50;;;;;;;56.60;26.05;;;;;;;-0.73;76.53;100074.34;3157007;28;20059;-67
2022/12/22 04:01:22;;;;;;;62.80;26.92;;;;;;;-0.90;76.34;100045.28;3157119;28;20105;-67
2022/12/22 04:02:54;;;;;;;66.97;27.60;;;;;;;-0.72;76.45;100076.03;3156694;28;20048;-67
2022/12/22 04:04:26;;;;;;;76.30;29.08;;;;;;;-0.74;76.22;100072.66;3156839;28;20048;-67
2022/12/22 04:05:57;;;;;;;72.25;30.00;;;;;;;-0.84;76.30;100055.53;3156709;28;20070;-68
2022/12/22 04:07:29;;;;;;;82.80;34.95;;;;;;;-0.79;76.22;100065.78;3156834;28;20048;-68
2022/12/22 04:09:01;;;;;;;99.72;38.95;;;;;;;-0.90;76.31;100044.44;3156528;28;20052;-68
2022/12/22 04:14:12;;;;;;;75.78;30.73;;;;;;;-0.80;75.98;100075.19;3156689;28;20048;-68
2022/12/22 04:15:43;;;;;;;75.47;32.55;;;;;;;-0.80;76.08;100066.63;3156736;28;20113;-68
2022/12/22 04:17:17;;;;;;;73.63;30.77;;;;;;;-0.85;75.94;100058.94;3154357;28;20070;-67
2022/12/22 04:18:48;;;;;;;78.50;32.40;;;;;;;-0.84;75.84;100063.19;3157156;28;20051;-67
2022/12/22 04:20:21;;;;;;;98.72;39.80;;;;;;;-1.41;75.95;99972.59;3156607;28;20091;-67
2022/12/22 04:21:53;;;;;;;77.13;32.00;;;;;;;-0.81;75.81;100075.16;3156682;28;20056;-67
2022/12/22 04:23:24;;;;;;;79.63;32.20;;;;;;;-0.88;75.95;100055.53;3156827;28;20085;-68
2022/12/22 04:24:56;;;;;;;76.07;32.17;;;;;;;-0.85;75.79;100060.66;3151839;28;20113;-67
2022/12/22 04:26:28;;;;;;;61.05;27.95;;;;;;;-0.85;75.75;100065.78;3156411;28;20047;-67
2022/12/22 04:27:59;;;;;;;66.65;28.02;;;;;;;-1.00;75.74;100041.81;3156507;28;20052;-67
2022/12/22 04:29:31;;;;;;;66.60;29.25;;;;;;;-0.81;75.76;100076.00;3156647;28;20046;-68
2022/12/22 04:31:02;;;;;;;67.93;27.60;;;;;;;-0.81;76.02;100072.59;3156486;28;20101;-68
2022/12/22 04:32:35;;;;;;;65.70;27.95;;;;;;;-0.82;76.04;100064.06;3153434;28;20436;-68
2022/12/22 04:34:07;;;;;;;55.85;25.38;;;;;;;-0.81;75.73;100075.16;3155867;28;20052;-67
2022/12/22 04:35:38;;;;;;;55.63;24.50;;;;;;;-0.83;75.79;100071.72;3156965;28;20606;-67
2022/12/22 04:37:10;;;;;;;61.88;25.38;;;;;;;-0.89;75.83;100062.31;3156308;28;20052;-68
2022/12/22 04:38:42;;;;;;;54.45;23.92;;;;;;;-0.86;75.61;100081.94;3152664;28;20102;-67
2022/12/22 04:40:14;;;;;;;56.90;24.73;;;;;;;-0.88;75.56;100073.41;3149611;28;20128;-68
2022/12/22 04:41:46;;;;;;;53.17;23.75;;;;;;;-0.97;75.36;100067.41;3155618;28;20484;-67
2022/12/22 04:43:18;;;;;;;55.15;23.98;;;;;;;-0.99;75.39;100070.78;3156519;28;20059;-67
2022/12/22 04:44:50;;;;;;;50.40;24.55;;;;;;;-0.95;75.53;100078.50;3156817;28;20052;-68
2022/12/22 04:46:22;;;;;;;51.42;24.25;;;;;;;-0.99;75.71;100069.09;3156797;28;20056;-66
2022/12/22 04:47:55;;;;;;;51.67;23.80;;;;;;;-0.96;75.71;100076.78;3156456;28;20486;-67
2022/12/22 04:49:27;;;;;;;54.20;23.67;;;;;;;-0.96;75.85;100075.91;3156615;28;20575;-67
2022/12/22 04:51:00;;;;;;;51.15;24.60;;;;;;;-0.96;75.98;100071.66;3152879;28;20056;-69
2022/12/22 04:52:32;;;;;;;50.65;21.75;;;;;;;-0.96;75.93;100075.91;3145668;28;20095;-68
2022/12/22 04:54:04;;;;;;;45.40;21.75;;;;;;;-1.01;75.93;100065.66;3152071;28;20044;-68
2022/12/22 04:55:35;;;;;;;57.92;23.52;;;;;;;-0.96;75.96;100081.03;3156395;28;20048;-68
2022/12/22 04:57:07;;;;;;;51.67;22.92;;;;;;;-1.00;75.91;100066.53;3153839;28;20177;-68
2022/12/22 04:58:38;;;;;;;48.95;21.48;;;;;;;-1.03;75.94;100061.41;3155939;28;20052;-68
2022/12/22 05:00:11;;;;;;;50.28;21.83;;;;;;;-1.06;75.82;100056.28;3156203;28;20059;-68
2022/12/22 05:01:43;;;;;;;51.22;22.15;;;;;;;-0.97;75.93;100074.22;3157355;28;20075;-68
2022/12/22 05:03:16;;;;;;;52.85;22.77;;;;;;;-1.46;75.88;99994.69;3159500;28;20121;-70
2022/12/22 05:04:48;;;;;;;50.28;21.40;;;;;;;-0.99;75.94;100065.69;3159235;28;20574;-67
2022/12/22 05:06:20;;;;;;;48.60;21.33;;;;;;;-0.93;75.74;100075.94;3159023;28;20055;-68
2022/12/22 05:07:52;;;;;;;44.70;21.10;;;;;;;-0.97;75.80;100066.56;3155274;28;20432;-68
2022/12/22 05:09:23;;;;;;;44.10;21.98;;;;;;;-0.93;75.68;100073.38;3158082;28;20040;-67
2022/12/22 05:10:54;;;;;;;47.63;21.35;;;;;;;-0.95;75.87;100073.38;3158884;28;20048;-68
2022/12/22 05:14:15;;;;;;;41.67;19.85;;;;;;;-0.99;76.02;100058.00;3158737;28;20505;-69
2022/12/22 05:15:46;;;;;;;51.70;19.80;;;;;;;-0.95;75.77;100072.50;3158523;28;20064;-66
2022/12/22 05:17:18;;;;;;;43.58;19.90;;;;;;;-0.95;75.83;100069.94;3156681;28;20055;-67
2022/12/22 05:18:51;;;;;;;46.53;19.38;;;;;;;-0.95;75.71;100068.28;3158764;28;20508;-68
2022/12/22 05:20:23;;;;;;;49.83;21.88;;;;;;;-1.01;75.64;100064.81;3158703;28;20104;-68
2022/12/22 05:21:55;;;;;;;48.75;20.95;;;;;;;-0.96;75.82;100076.78;3155988;28;20052;-67
2022/12/22 05:23:27;;;;;;;49.60;21.73;;;;;;;-0.95;75.88;100075.06;3152688;28;20405;-67
2022/12/22 05:24:58;;;;;;;49.78;21.52;;;;;;;-1.01;75.86;100057.13;3158596;28;20074;-69
2022/12/22 05:26:30;;;;;;;54.40;21.45;;;;;;;-0.99;75.96;100066.53;3158447;28;20048;-68
2022/12/22 05:28:02;;;;;;;47.15;20.40;;;;;;;-1.00;75.82;100064.84;3158399;28;20047;-67
2022/12/22 05:29:34;;;;;;;58.38;23.17;;;;;;;-0.93;75.86;100079.34;3150939;28;20127;-68
2022/12/22 05:31:07;;;;;;;45.50;21.27;;;;;;;-1.42;76.07;100006.63;3158534;28;20039;-67
2022/12/22 05:32:40;;;;;;;50.92;22.48;;;;;;;-1.03;76.00;100061.41;3158089;28;20409;-67
2022/12/22 05:34:13;;;;;;;48.50;21.08;;;;;;;-0.99;76.06;100070.78;3158347;28;20052;-68
2022/12/22 05:35:44;;;;;;;49.25;22.70;;;;;;;-1.36;76.05;100006.69;3157926;28;20117;-67
2022/12/22 05:37:16;;;;;;;47.05;21.77;;;;;;;-1.39;75.84;100010.06;3146807;28;20048;-67
2022/12/22 05:38:48;;;;;;;49.47;22.27;;;;;;;-0.94;76.06;100076.78;3158519;28;20055;-68
2022/12/22 05:40:20;;;;;;;55.08;22.48;;;;;;;-0.96;76.00;100073.38;3158837;28;20117;-68
2022/12/22 05:41:51;;;;;;;53.58;22.75;;;;;;;-1.00;76.12;100072.50;3158537;28;20577;-72
2022/12/22 05:43:22;;;;;;;50.58;22.77;;;;;;;-1.46;76.15;99989.56;3158095;28;20047;-69
2022/12/22 05:44:54;;;;;;;54.53;23.63;;;;;;;-0.95;76.14;100078.50;3158444;28;20077;-70
2022/12/22 05:46:26;;;;;;;52.33;23.40;;;;;;;-0.95;76.21;100075.94;3158318;28;20082;-71
2022/12/22 05:47:58;;;;;;;52.90;24.40;;;;;;;-0.95;76.17;100077.63;3157998;28;20106;-69
2022/12/22 05:49:30;;;;;;;56.35;23.73;;;;;;;-0.93;76.21;100073.38;3158104;28;20486;-69
2022/12/22 05:51:02;;;;;;;56.38;24.98;;;;;;;-1.01;76.31;100063.09;3153382;28;20151;-66
2022/12/22 05:52:33;;;;;;;59.50;23.90;;;;;;;-0.91;76.30;100079.38;3144574;28;20041;-68
2022/12/22 05:54:05;;;;;;;48.70;22.35;;;;;;;-0.90;76.22;100080.22;3151932;28;20100;-67
2022/12/22 05:55:36;;;;;;;52.90;23.45;;;;;;;-0.89;76.39;100074.25;3158142;28;20047;-69
2022/12/22 05:57:08;;;;;;;60.28;23.17;;;;;;;-0.89;75.98;100075.09;3155830;28;20056;-70
2022/12/22 05:58:40;;;;;;;47.67;21.27;;;;;;;-0.96;76.02;100058.88;3157739;28;20051;-69
2022/12/22 06:00:13;;;;;;;55.13;22.50;;;;;;;-0.86;76.21;100077.66;3157978;28;20641;-67
2022/12/22 06:01:45;;;;;;;51.22;21.73;;;;;;;-0.87;76.03;100072.56;3158038;28;20044;-66
2022/12/22 06:03:17;;;;;;;51.95;21.50;;;;;;;-0.90;76.06;100064.88;3158308;28;20063;-66
2022/12/22 06:04:50;;;;;;;45.97;20.40;;;;;;;-0.86;75.98;100080.22;3158276;28;20435;-65
2022/12/22 06:06:22;;;;;;;;;;;;;;;-0.91;75.87;100074.25;3154292;28;20052;-66
2022/12/22 06:07:54;;;;;;;51.63;20.92;;;;;;;-1.06;76.03;100048.63;3158133;28;19920;-66
2022/12/22 06:09:26;;;;;;;47.08;20.67;;;;;;;-0.93;75.98;100068.28;3158518;28;20044;-65
2022/12/22 06:10:59;;;;;;;50.15;23.35;;;;;;;-0.90;75.97;100073.41;3157683;28;20048;-65
2022/12/22 06:12:31;;;;;;;60.97;23.55;;;;;;;-0.88;76.13;100073.41;3158222;28;20089;-66
2022/12/22 06:14:02;;;;;;;56.78;24.17;;;;;;;-0.86;76.11;100077.66;3157006;28;20509;-66
2022/12/22 06:15:34;;;;;;;64.32;25.42;;;;;;;-0.84;76.16;100070.03;3158166;28;20099;-67
2022/12/22 06:17:06;;;;;;;49.95;23.55;;;;;;;-0.79;76.12;100081.13;3156100;28;20052;-67
2022/12/22 06:18:38;;;;;;;57.03;25.38;;;;;;;-0.70;76.18;100086.31;3158204;28;20052;-66
2022/12/22 06:20:12;;;;;;;57.72;25.40;;;;;;;-0.72;76.10;100055.59;3157975;28;20070;-66
2022/12/22 06:21:44;;;;;;;59.70;24.20;;;;;;;-0.49;76.14;100076.16;3153785;28;20884;-66
2022/12/22 06:23:16;;;;;;;58.55;26.55;;;;;;;-0.36;76.03;100076.19;3155960;28;20052;-67
2022/12/22 06:24:48;;;;;;;65.18;27.40;;;;;;;-0.30;75.99;100073.66;3141339;28;20112;-67
2022/12/22 06:26:20;;;;;;;63.05;26.80;;;;;;;-0.13;75.94;100076.28;3157204;28;20123;-67
2022/12/22 06:27:52;;;;;;;61.75;25.67;;;;;;;0.01;75.94;100079.72;3157644;28;20060;-68
2022/12/22 06:29:24;;;;;;;56.33;25.08;;;;;;;0.12;75.73;100077.16;3149913;28;20055;-68
2022/12/22 06:30:56;;;;;;;66.68;24.83;;;;;;;0.25;75.56;100075.50;3148955;28;20062;-68
2022/12/22 06:32:28;;;;;;;60.33;24.00;;;;;;;0.33;75.39;100069.53;3146212;28;20066;-66
2022/12/22 06:34:00;;;;;;;61.75;26.10;;;;;;;0.52;75.20;100082.34;3154813;28;20109;-68
2022/12/22 06:35:33;;;;;;;68.55;24.13;;;;;;;0.60;75.10;100072.97;3149985;28;20379;-68
2022/12/22 06:37:05;;;;;;;51.25;23.42;;;;;;;0.70;75.01;100069.53;3153004;28;20056;-68
2022/12/22 06:38:36;;;;;;;61.67;24.00;;;;;;;0.91;74.70;100079.75;3154386;28;20498;-64
2022/12/22 06:40:10;;;;;;;56.70;24.98;;;;;;;1.01;74.61;100079.75;3151967;28;20090;-65
2022/12/22 06:43:30;;;;;;;58.85;24.92;;;;;;;0.89;74.00;100014.81;3152294;28;20056;-67
2022/12/22 06:45:02;;;;;;;54.38;24.85;;;;;;;1.43;73.84;100085.63;3143850;28;20058;-68
2022/12/22 06:46:34;;;;;;;60.15;24.17;;;;;;;1.55;73.76;100083.00;3157785;28;20059;-67
2022/12/22 06:48:07;;;;;;;55.90;24.60;;;;;;;1.64;73.26;100088.09;3157140;28;20113;-71
2022/12/22 06:49:39;;;;;;;59.70;24.58;;;;;;;1.77;73.08;100089.75;3155803;28;20686;-67
2022/12/22 06:51:12;;;;;;;65.82;24.30;;;;;;;1.86;72.69;100090.56;3147146;28;20044;-67
2022/12/22 06:52:44;;;;;;;68.30;24.15;;;;;;;1.91;72.22;100088.84;3155243;28;20051;-68
2022/12/22 06:54:16;;;;;;;62.33;24.77;;;;;;;1.96;71.98;100090.53;3156998;28;20712;-66
2022/12/22 06:55:48;;;;;;;96.65;39.00;;;;;;;2.00;71.90;100092.19;3157616;28;20052;-67
2022/12/22 06:57:20;;;;;;;152.30;61.15;;;;;;;2.00;71.53;100083.66;3156969;28;20070;-68
2022/12/22 06:58:52;;;;;;;75.38;32.30;;;;;;;2.11;71.21;100091.31;3150924;28;20056;-68
2022/12/22 07:00:24;;;;;;;54.60;23.45;;;;;;;2.27;71.38;100095.47;3151731;28;20062;-68
2022/12/22 07:01:56;;;;;;;51.75;22.67;;;;;;;2.40;71.19;100093.69;3157393;28;20094;-71
2022/12/22 07:03:27;;;;;;;57.95;23.30;;;;;;;2.58;70.98;100077.25;3157730;28;20538;-68
2022/12/22 07:04:59;;;;;;;50.60;22.42;;;;;;;2.74;70.61;100074.53;3157101;28;20048;-67
2022/12/22 07:06:33;;;;;;;52.55;22.80;;;;;;;2.99;70.20;100081.16;3152175;28;20055;-68
2022/12/22 07:08:05;;;;;;;56.25;21.80;;;;;;;3.17;69.82;100084.41;3157075;28;20044;-66
2022/12/22 07:09:37;;;;;;;54.37;21.73;;;;;;;3.44;69.38;100090.13;3157609;28;20065;-68
2022/12/22 07:11:08;;;;;;;49.50;21.17;;;;;;;3.65;68.94;100089.03;3157460;28;20306;-67
2022/12/22 07:12:40;;;;;;;44.22;20.63;;;;;;;3.87;68.53;100076.72;3157167;28;20044;-68
2022/12/22 07:14:11;;;;;;;49.40;20.48;;;;;;;4.05;67.94;100080.75;3156608;28;20055;-69
2022/12/22 07:15:42;;;;;;;48.90;21.20;;;;;;;4.31;67.44;100083.81;3132321;28;20622;-66
2022/12/22 07:17:14;;;;;;;45.22;19.20;;;;;;;4.48;66.40;100070.66;3143598;28;20048;-65
2022/12/22 07:18:46;;;;;;;45.28;19.67;;;;;;;4.64;65.75;100073.84;3155944;28;20048;-66
2022/12/22 07:20:18;;;;;;;41.05;19.48;;;;;;;4.94;65.27;100084.50;3154870;28;20044;-67
2022/12/22 07:21:54;;;;;;;74.82;32.45;;;;;;;5.12;64.28;100084.19;3151190;28;20077;-65
2022/12/22 07:23:25;;;;;;;75.88;31.52;;;;;;;5.33;63.60;100079.53;3156026;28;20113;-65
2022/12/22 07:24:57;;;;;;;150.60;63.17;;;;;;;5.54;63.20;100083.41;3151320;28;20071;-65
2022/12/22 07:26:29;;;;;;;104.75;46.58;;;;;;;5.80;62.89;100082.88;3153778;28;20139;-66
2022/12/22 07:28:01;;;;;;;57.17;22.63;;;;;;;6.12;62.18;100084.78;3155590;28;20470;-66
2022/12/22 07:29:35;;;;;;;45.00;20.08;;;;;;;6.41;61.31;100084.09;3154539;28;20070;-66
2022/12/22 07:31:07;;;;;;;;;;;;;;;6.72;61.38;100083.38;3156614;28;20135;-68
2022/12/22 07:32:39;;;;;;;44.85;17.92;;;;;;;6.94;60.16;100083.69;3155660;28;19920;-66
2022/12/22 07:34:11;;;;;;;39.35;17.67;;;;;;;7.19;59.22;100084.75;3156143;28;20048;-65
2022/12/22 07:35:43;;;;;;;42.25;18.20;;;;;;;7.47;58.57;100084.00;3146886;28;20101;-66
2022/12/22 07:37:16;;;;;;;48.15;18.05;;;;;;;7.73;57.57;100085.84;3150916;28;20052;-65
2022/12/22 07:38:50;;;;;;;43.83;17.33;;;;;;;7.95;56.92;100076.53;3157442;28;20060;-63
2022/12/22 07:40:21;;;;;;;;;;;;;;;8.21;57.31;100078.31;3156687;28;20048;-63
2022/12/22 07:43:42;;;;;;;258.77;102.13;;;;;;;8.58;55.20;100082.41;3156453;28;20056;-62
2022/12/22 07:45:16;;;;;;;91.80;41.70;;;;;;;8.73;54.80;100077.59;3157076;28;20520;-64
2022/12/22 07:46:47;;;;;;;;;;;;;;;8.92;55.17;100081.28;3157087;28;20052;-63
2022/12/22 07:50:27;;;;;;;38.47;18.15;;;;;;;9.07;53.62;100074.69;3153500;28;20072;-67
2022/12/22 07:51:59;;;;;;;41.20;18.67;;;;;;;9.33;53.01;100081.59;3146599;28;20071;-66
2022/12/22 07:53:33;;;;;;;40.35;18.38;;;;;;;9.13;52.69;100013.88;3154793;28;20048;-66
2022/12/22 07:55:07;;;;;;;36.80;17.42;;;;;;;9.76;52.08;100077.41;3155180;28;20105;-65
2022/12/22 07:56:39;;;;;;;35.58;16.17;;;;;;;10.01;51.41;100077.34;3151391;28;20059;-67
2022/12/22 07:58:11;;;;;;;36.13;17.52;;;;;;;10.22;50.74;100083.47;3148051;28;20048;-67
2022/12/22 07:59:42;;;;;;;34.53;16.77;;;;;;;10.44;50.60;100073.94;3147238;28;20483;-64
2022/12/22 08:01:14;;;;;;;35.55;16.92;;;;;;;10.64;49.81;100078.31;3156846;28;20055;-65
2022/12/22 08:02:49;;;;;;;37.63;17.50;;;;;;;10.88;49.54;100070.41;3156607;28;20097;-64
2022/12/22 08:04:21;;;;;;;37.92;17.83;;;;;;;11.06;48.75;100071.38;3152281;28;20048;-66
2022/12/22 08:05:53;;;;;;;38.05;17.25;;;;;;;11.26;48.56;100068.75;3156230;28;20048;-64
2022/12/22 08:07:25;;;;;;;39.40;17.52;;;;;;;11.50;48.06;100069.44;3156368;28;20512;-65
2022/12/22 08:08:59;;;;;;;39.40;17.60;;;;;;;11.78;47.30;100076.88;3156703;28;20753;-64
2022/12/22 08:10:31;;;;;;;;;;;;;;;12.09;47.69;100066.81;3157157;28;20040;-64
2022/12/22 08:12:03;;;;;;;29.30;16.42;;;;;;;12.26;47.21;100061.63;3156585;28;19920;-66
2022/12/22 08:13:37;;;;;;;42.63;16.20;;;;;;;12.58;46.18;100065.31;3156558;28;20044;-64
2022/12/22 08:15:10;;;;;;;32.40;16.08;;;;;;;12.87;45.31;100069.09;3156632;28;20048;-65
2022/12/22 08:16:41;;;;;;;33.22;15.80;;;;;;;13.08;45.12;100066.31;3149143;28;20124;-63
2022/12/22 08:18:13;;;;;;;32.92;15.50;;;;;;;13.23;44.32;100062.06;3145400;28;20044;-62
2022/12/22 08:19:47;;;;;;;33.60;15.93;;;;;;;13.34;43.71;100068.44;3131643;28;20071;-63
2022/12/22 08:21:19;;;;;;;34.03;15.93;;;;;;;13.44;43.62;100068.81;3156190;28;20120;-64
2022/12/22 08:22:51;;;;;;;33.58;15.40;;;;;;;13.56;43.09;100064.69;3156704;28;20048;-64
2022/12/22 08:24:24;;;;;;;38.13;15.75;;;;;;;13.66;42.95;100058.03;3156335;28;20448;-63
2022/12/22 08:25:58;;;;;;;;;;;;;;;13.82;43.32;100058.06;3154599;28;20067;-63
2022/12/22 08:27:37;;;;;;;28.27;15.48;;;;;;;13.74;42.97;100062.84;3156329;28;19923;-67
2022/12/22 08:29:13;;;;;;;28.38;14.60;;;;;;;13.82;42.52;100064.13;3157090;28;20052;-65
2022/12/22 08:30:46;;;;;;;31.60;14.85;;;;;;;13.90;41.76;100066.31;3156074;28;20044;-65
2022/12/22 08:32:18;;;;;;;29.58;14.20;;;;;;;13.91;41.60;100059.34;3156433;28;20078;-67
2022/12/22 08:33:50;;;;;;;31.08;14.00;;;;;;;13.99;41.30;100063.22;3148083;28;20064;-69
2022/12/22 08:35:23;;;;;;;32.00;14.45;;;;;;;14.09;40.99;100064.38;3155853;28;20044;-68
2022/12/22 08:36:59;;;;;;;28.73;15.02;;;;;;;14.19;40.76;100054.22;3157914;28;20044;-66
2022/12/22 08:38:31;;;;;;;35.85;15.90;;;;;;;14.30;40.49;100058.88;3159139;28;20044;-66
2022/12/22 08:40:08;;;;;;;32.42;15.38;;;;;;;14.37;40.17;100056.75;3158680;28;20500;-69
2022/12/22 08:41:52;;;;;;;30.55;16.63;;;;;;;14.42;39.82;100046.88;3158981;28;20082;-69
2022/12/22 08:43:24;;;;;;;;;;;;;;;14.48;40.23;100041.28;3159626;28;20139;-69
2022/12/22 08:44:56;;;;;;;29.65;14.93;;;;;;;14.45;39.90;100044.91;3158666;28;19956;-67
2022/12/22 08:46:28;;;;;;;32.80;15.93;;;;;;;14.48;39.75;100031.63;3159246;28;20060;-69
2022/12/22 08:48:00;;;;;;;33.97;17.55;;;;;;;14.30;39.13;100001.25;3149848;28;20059;-67
2022/12/22 08:49:32;;;;;;;33.72;16.77;;;;;;;14.42;39.10;100020.66;3154878;28;20436;-65
2022/12/22 08:51:04;;;;;;;41.33;17.10;;;;;;;14.55;39.02;100037.38;3156447;28;20044;-67
2022/12/22 08:52:36;;;;;;;37.08;16.75;;;;;;;14.57;38.72;100025.03;3152864;28;20444;-66
2022/12/22 08:54:08;;;;;;;40.13;17.13;;;;;;;14.06;38.50;99930.16;3147055;28;20432;-67
2022/12/22 08:55:41;;;;;;;38.90;17.38;;;;;;;14.71;38.06;100021.63;3159195;28;20109;-65
2022/12/22 08:57:13;;;;;;;33.72;17.83;;;;;;;14.57;38.31;100001.47;3150973;28;20052;-67
2022/12/22 08:58:44;;;;;;;46.15;18.33;;;;;;;14.72;37.86;100018.91;3150604;28;20052;-68
2022/12/22 09:00:17;;;;;;;59.60;18.35;;;;;;;14.75;37.76;100017.88;3158602;28;20128;-68
2022/12/22 09:01:49;;;;;;;43.47;16.98;;;;;;;14.62;37.74;99990.72;3158730;28;21721;-66
2022/12/22 09:03:21;;;;;;;32.35;15.10;;;;;;;14.82;37.27;100010.50;3153990;28;20497;-66
2022/12/22 09:04:52;;;;;;;34.67;15.20;;;;;;;14.85;36.39;100016.41;3158372;28;20056;-67
2022/12/22 09:06:25;;;;;;;38.70;16.55;;;;;;;14.84;36.51;100009.47;3158459;28;20482;-66
2022/12/22 09:07:57;;;;;;;47.65;16.38;;;;;;;14.81;36.81;100006.19;3158917;28;20401;-68
2022/12/22 09:09:31;;;;;;;32.25;15.45;;;;;;;14.79;36.89;100012.38;3158571;28;20047;-67
2022/12/22 09:11:05;;;;;;;32.95;16.83;;;;;;;14.83;36.48;99996.47;3158337;28;20067;-67
2022/12/22 09:12:36;;;;;;;31.67;16.00;;;;;;;14.89;36.23;100004.81;3158613;28;20048;-67
2022/12/22 09:14:09;;;;;;;33.30;16.25;;;;;;;14.89;36.32;100007.44;3146690;28;20535;-66
2022/12/22 09:15:41;;;;;;;31.88;15.57;;;;;;;14.86;36.44;100010.22;3155685;28;20052;-69
2022/12/22 09:17:13;;;;;;;50.47;22.13;;;;;;;14.73;36.45;99993.53;3155311;28;20505;-69
2022/12/22 09:18:45;;;;;;;34.78;16.50;;;;;;;14.26;36.60;99916.78;3154181;28;20056;-68
2022/12/22 09:20:17;;;;;;;32.42;15.63;;;;;;;14.75;36.36;99992.50;3158156;28;20044;-68
2022/12/22 09:21:49;;;;;;;31.02;15.68;;;;;;;14.70;36.45;99997.19;3156292;28;20051;-69
2022/12/22 09:23:21;;;;;;;37.28;16.15;;;;;;;14.57;35.99;99983.94;3158605;28;20048;-68
2022/12/22 09:24:53;;;;;;;30.83;16.83;;;;;;;14.44;35.91;99993.44;3158126;28;20071;-69
2022/12/22 09:26:28;;;;;;;34.40;16.20;;;;;;;14.31;36.30;99988.06;3158037;28;20062;-69
2022/12/22 09:28:00;;;;;;;29.52;15.98;;;;;;;14.27;36.71;99980.47;3158072;28;20052;-82
2022/12/22 09:29:32;;;;;;;35.25;15.93;;;;;;;14.30;36.45;99986.38;3158186;28;20051;-64
2022/12/22 09:31:04;;;;;;;43.28;17.95;;;;;;;14.28;36.66;99984.78;3158161;28;20052;-70
2022/12/22 09:32:36;;;;;;;35.53;16.75;;;;;;;14.23;36.77;99979.81;3153403;28;20458;-68
2022/12/22 09:34:08;;;;;;;32.55;16.00;;;;;;;14.21;36.94;99984.28;3157758;28;20044;-65
2022/12/22 09:35:41;;;;;;;31.58;17.73;;;;;;;14.33;36.67;99985.34;3158287;28;20060;-68
2022/12/22 09:37:14;;;;;;;33.30;17.52;;;;;;;14.28;36.31;99983.00;3158287;28;20113;-67
2022/12/22 09:38:46;;;;;;;;;;;;;;;14.20;36.64;99987.84;3135619;28;20442;-66
2022/12/22 09:40:20;;;;;;;39.20;16.48;;;;;;;13.97;36.46;99968.19;3147499;28;19943;-67
2022/12/22 09:41:55;;;;;;;144.35;69.72;;;;;;;13.90;36.82;99972.06;3157230;28;20048;-66
2022/12/22 09:43:30;;;;;;;47.70;25.50;;;;;;;13.74;37.10;99976.50;3158461;28;20117;-66
2022/12/22 09:45:02;;;;;;;42.63;20.52;;;;;;;13.56;37.06;99981.81;3156806;28;20052;-66
2022/12/22 09:46:36;;;;;;;48.13;18.85;;;;;;;13.34;37.34;99976.03;3157150;28;20105;-68
2022/12/22 09:48:12;;;;;;;47.47;20.25;;;;;;;13.05;37.45;99969.72;3143107;28;20052;-68
2022/12/22 09:49:44;;;;;;;43.05;20.08;;;;;;;12.77;37.78;99965.06;3138114;28;20063;-67
2022/12/22 09:51:17;;;;;;;44.50;19.83;;;;;;;12.56;38.17;99977.47;3137615;28;20406;-65
2022/12/22 09:52:53;;;;;;;48.88;18.80;;;;;;;12.33;38.43;99973.38;3139876;28;20167;-67
2022/12/22 09:54:25;;;;;;;42.20;19.20;;;;;;;12.07;38.95;99972.94;3140169;28;20048;-66
2022/12/22 09:55:57;;;;;;;37.63;18.70;;;;;;;11.84;38.93;99967.00;3136637;28;20049;-66
2022/12/22 09:57:32;;;;;;;40.47;20.10;;;;;;;11.66;39.51;99967.03;3143662;28;20044;-66
2022/12/22 09:59:12;;;;;;;39.75;17.70;;;;;;;11.37;39.24;99945.75;3136990;28;20056;-66
2022/12/22 10:00:46;;;;;;;39.22;18.25;;;;;;;11.14;39.47;99952.84;3136871;28;20057;-67
2022/12/22 10:02:28;;;;;;;37.88;18.13;;;;;;;10.71;39.55;99930.47;3136982;28;20049;-67
2022/12/22 10:04:06;;;;;;;36.60;17.75;;;;;;;10.64;40.02;99950.72;3137462;28;20099;-67
2022/12/22 10:05:45;;;;;;;38.58;16.58;;;;;;;10.43;40.21;99949.03;3137662;28;20186;-67
2022/12/22 10:07:24;;;;;;;34.13;16.92;;;;;;;10.32;40.94;99956.44;3136793;28;20164;-67
2022/12/22 10:08:56;;;;;;;32.97;16.85;;;;;;;10.02;41.09;99928.97;3140494;28;20550;-66
2022/12/22 10:10:30;;;;;;;33.92;16.67;;;;;;;10.03;41.15;99945.44;3138349;28;20052;-67
2022/12/22 10:12:03;;;;;;;34.70;16.23;;;;;;;9.85;41.45;99938.38;3137929;28;20048;-67
2022/12/22 10:13:37;;;;;;;37.78;16.85;;;;;;;9.73;41.44;99937.97;3141391;28;20049;-66
2022/12/22 10:15:11;;;;;;;35.25;15.65;;;;;;;9.50;41.55;99928.47;3135836;28;20744;-67
2022/12/22 10:16:43;;;;;;;92.38;35.33;;;;;;;9.42;41.84;99934.84;3140608;28;20360;-66
2022/12/22 10:18:17;;;;;;;77.20;30.25;;;;;;;9.16;41.97;99900.31;3145782;28;20052;-67
2022/12/22 10:19:51;;;;;;;42.47;18.00;;;;;;;9.26;42.23;99924.22;3149594;28;20052;-67
2022/12/22 10:21:25;;;;;;;57.00;20.40;;;;;;;9.21;42.61;99921.75;3145276;28;20513;-67
2022/12/22 10:22:59;;;;;;;36.88;16.17;;;;;;;9.21;42.94;99924.38;3138722;28;20052;-67
2022/12/22 10:24:36;;;;;;;35.70;15.90;;;;;;;9.18;42.66;99919.28;3143043;28;20110;-67
2022/12/22 10:26:12;;;;;;;30.98;15.85;;;;;;;9.17;42.62;99919.31;3146188;28;20054;-67
2022/12/22 10:27:44;;;;;;;35.47;15.00;;;;;;;9.07;42.88;99905.84;3146128;28;20541;-66
2022/12/22 10:29:18;;;;;;;40.85;14.90;;;;;;;9.08;42.76;99915.31;3135878;28;20048;-67
2022/12/22 10:31:08;;;;;;;32.63;14.80;;;;;;;8.99;43.05;99921.72;3138340;28;20079;-67
2022/12/22 10:32:40;;;;;;;38.08;15.43;;;;;;;8.88;43.23;99916.06;3144880;28;20159;-68
2022/12/22 10:34:14;;;;;;;28.67;14.77;;;;;;;8.82;43.48;99924.94;3142935;28;20045;-67
2022/12/22 10:35:51;;;;;;;38.65;15.73;;;;;;;8.34;43.46;99850.47;3139658;28;20133;-66
2022/12/22 10:37:31;;;;;;;48.83;22.30;;;;;;;8.73;43.53;99920.06;3139497;28;20051;-67
2022/12/22 10:39:06;;;;;;;40.25;17.23;;;;;;;8.70;43.60;99908.94;3150045;28;20044;-67
2022/12/22 10:40:43;;;;;;;33.70;14.38;;;;;;;8.54;43.61;99888.69;3140180;28;20582;-69
2022/12/22 10:42:15;;;;;;;39.25;15.48;;;;;;;8.53;44.01;99900.00;3137075;28;20103;-69
2022/12/22 10:43:50;;;;;;;33.75;15.32;;;;;;;8.46;44.13;99897.66;3137400;28;20438;-69
2022/12/22 10:45:27;;;;;;;35.47;15.43;;;;;;;8.40;44.42;99894.41;3144213;28;20121;-68
2022/12/22 10:47:02;;;;;;;33.63;15.98;;;;;;;7.45;44.01;99741.16;3138252;28;20138;-68